sensor_id;sensor_type;location;lat;lon;timestamp;temperature;humidity
32348;DHT22;18821;44.800;10.326;2023-08-06T00:01:57;19.70;99.90
32348;DHT22;18821;44.800;10.326;2023-08-06T00:04:23;19.90;99.90
32348;DHT22;18821;44.800;10.326;2023-08-06T00:06:49;20.50;99.90
32348;DHT22;18821;44.800;10.326;2023-08-06T00:11:41;20.70;99.90
32348;DHT22;18821;44.800;10.326;2023-08-06T00:14:09;20.20;99.90
32348;DHT22;18821;44.800;10.326;2023-08-06T00:21:28;20.20;99.90
32348;DHT22;18821;44.800;10.326;2023-08-06T00:23:54;20.50;99.90
32348;DHT22;18821;44.800;10.326;2023-08-06T00:26:19;20.20;99.90
32348;DHT22;18821;44.800;10.326;2023-08-06T00:28:45;20.30;99.90
32348;DHT22;18821;44.800;10.326;2023-08-06T00:31:11;19.80;99.90
32348;DHT22;18821;44.800;10.326;2023-08-06T00:33:38;19.70;99.90
32348;DHT22;18821;44.800;10.326;2023-08-06T00:38:30;20.20;99.90
32348;DHT22;18821;44.800;10.326;2023-08-06T00:40:56;20.30;99.90
32348;DHT22;18821;44.800;10.326;2023-08-06T00:43:22;19.90;99.90
32348;DHT22;18821;44.800;10.326;2023-08-06T00:48:15;20.30;99.90
32348;DHT22;18821;44.800;10.326;2023-08-06T00:50:41;20.80;99.90
32348;DHT22;18821;44.800;10.326;2023-08-06T00:58:00;19.80;99.90
32348;DHT22;18821;44.800;10.326;2023-08-06T01:00:27;20.60;99.90
32348;DHT22;18821;44.800;10.326;2023-08-06T01:02:53;19.60;99.90
32348;DHT22;18821;44.800;10.326;2023-08-06T01:05:20;19.70;99.90
32348;DHT22;18821;44.800;10.326;2023-08-06T01:16:06;20.30;99.90
32348;DHT22;18821;44.800;10.326;2023-08-06T01:18:33;20.30;99.90
32348;DHT22;18821;44.800;10.326;2023-08-06T01:20:59;19.60;99.90
32348;DHT22;18821;44.800;10.326;2023-08-06T01:23:25;19.80;99.90
32348;DHT22;18821;44.800;10.326;2023-08-06T01:29:01;19.70;99.90
32348;DHT22;18821;44.800;10.326;2023-08-06T01:31:38;20.00;99.90
32348;DHT22;18821;44.800;10.326;2023-08-06T01:34:09;20.60;99.90
32348;DHT22;18821;44.800;10.326;2023-08-06T01:36:36;19.70;99.90
32348;DHT22;18821;44.800;10.326;2023-08-06T01:39:04;20.10;99.90
32348;DHT22;18821;44.800;10.326;2023-08-06T01:41:30;20.90;99.90
32348;DHT22;18821;44.800;10.326;2023-08-06T01:43:57;20.80;99.90
32348;DHT22;18821;44.800;10.326;2023-08-06T01:46:23;20.50;99.90
32348;DHT22;18821;44.800;10.326;2023-08-06T01:48:50;20.60;99.90
32348;DHT22;18821;44.800;10.326;2023-08-06T01:51:16;20.20;99.90
32348;DHT22;18821;44.800;10.326;2023-08-06T01:56:10;20.30;99.90
32348;DHT22;18821;44.800;10.326;2023-08-06T01:58:35;20.30;99.90
32348;DHT22;18821;44.800;10.326;2023-08-06T02:01:02;20.60;99.90
32348;DHT22;18821;44.800;10.326;2023-08-06T02:03:28;20.10;99.90
32348;DHT22;18821;44.800;10.326;2023-08-06T02:05:54;20.10;99.90
32348;DHT22;18821;44.800;10.326;2023-08-06T02:08:20;19.90;99.90
32348;DHT22;18821;44.800;10.326;2023-08-06T02:10:46;20.10;99.90
32348;DHT22;18821;44.800;10.326;2023-08-06T02:13:12;20.10;99.90
32348;DHT22;18821;44.800;10.326;2023-08-06T02:15:45;20.10;99.90
32348;DHT22;18821;44.800;10.326;2023-08-06T02:18:13;20.30;99.90
32348;DHT22;18821;44.800;10.326;2023-08-06T02:20:41;19.40;99.90
32348;DHT22;18821;44.800;10.326;2023-08-06T02:23:07;20.10;99.90
32348;DHT22;18821;44.800;10.326;2023-08-06T02:25:33;20.20;99.90
32348;DHT22;18821;44.800;10.326;2023-08-06T02:30:25;19.90;99.90
32348;DHT22;18821;44.800;10.326;2023-08-06T02:32:52;20.70;99.90
32348;DHT22;18821;44.800;10.326;2023-08-06T02:35:18;20.70;99.90
32348;DHT22;18821;44.800;10.326;2023-08-06T02:37:45;19.60;99.90
32348;DHT22;18821;44.800;10.326;2023-08-06T02:42:37;18.90;99.90
32348;DHT22;18821;44.800;10.326;2023-08-06T02:45:04;20.00;99.90
32348;DHT22;18821;44.800;10.326;2023-08-06T02:47:30;19.60;99.90
32348;DHT22;18821;44.800;10.326;2023-08-06T02:49:57;19.50;99.90
32348;DHT22;18821;44.800;10.326;2023-08-06T02:52:23;19.30;99.90
32348;DHT22;18821;44.800;10.326;2023-08-06T02:54:49;18.90;99.90
32348;DHT22;18821;44.800;10.326;2023-08-06T02:57:16;19.20;99.90
32348;DHT22;18821;44.800;10.326;2023-08-06T02:59:42;18.40;99.90
32348;DHT22;18821;44.800;10.326;2023-08-06T03:02:26;19.60;99.90
32348;DHT22;18821;44.800;10.326;2023-08-06T03:05:04;18.80;99.90
32348;DHT22;18821;44.800;10.326;2023-08-06T03:07:35;18.60;99.90
32348;DHT22;18821;44.800;10.326;2023-08-06T03:10:10;18.70;99.90
32348;DHT22;18821;44.800;10.326;2023-08-06T03:12:36;18.30;99.90
32348;DHT22;18821;44.800;10.326;2023-08-06T03:15:04;18.60;99.90
32348;DHT22;18821;44.800;10.326;2023-08-06T03:17:30;18.70;99.90
32348;DHT22;18821;44.800;10.326;2023-08-06T03:19:56;18.60;99.90
32348;DHT22;18821;44.800;10.326;2023-08-06T03:22:23;18.10;99.90
32348;DHT22;18821;44.800;10.326;2023-08-06T03:24:52;18.40;99.90
32348;DHT22;18821;44.800;10.326;2023-08-06T03:27:20;18.90;99.90
32348;DHT22;18821;44.800;10.326;2023-08-06T03:29:51;18.50;99.90
32348;DHT22;18821;44.800;10.326;2023-08-06T03:32:19;18.10;99.90
32348;DHT22;18821;44.800;10.326;2023-08-06T03:34:45;18.40;99.90
32348;DHT22;18821;44.800;10.326;2023-08-06T03:37:12;18.40;99.90
32348;DHT22;18821;44.800;10.326;2023-08-06T03:39:38;18.40;99.90
32348;DHT22;18821;44.800;10.326;2023-08-06T03:42:04;17.80;99.90
32348;DHT22;18821;44.800;10.326;2023-08-06T03:44:30;18.40;99.90
32348;DHT22;18821;44.800;10.326;2023-08-06T03:49:23;17.90;99.90
32348;DHT22;18821;44.800;10.326;2023-08-06T03:54:16;18.10;99.90
32348;DHT22;18821;44.800;10.326;2023-08-06T04:04:01;18.30;99.90
32348;DHT22;18821;44.800;10.326;2023-08-06T04:06:27;19.10;99.90
32348;DHT22;18821;44.800;10.326;2023-08-06T04:08:53;18.10;99.90
32348;DHT22;18821;44.800;10.326;2023-08-06T04:16:11;18.60;99.90
32348;DHT22;18821;44.800;10.326;2023-08-06T04:18:39;18.80;99.90
32348;DHT22;18821;44.800;10.326;2023-08-06T04:21:05;18.00;99.90
32348;DHT22;18821;44.800;10.326;2023-08-06T04:23:30;19.00;99.90
32348;DHT22;18821;44.800;10.326;2023-08-06T04:26:05;18.00;99.90
32348;DHT22;18821;44.800;10.326;2023-08-06T04:28:33;18.30;99.90
32348;DHT22;18821;44.800;10.326;2023-08-06T04:33:27;18.70;99.90
32348;DHT22;18821;44.800;10.326;2023-08-06T04:35:56;18.00;99.90
32348;DHT22;18821;44.800;10.326;2023-08-06T04:38:24;18.70;99.90
32348;DHT22;18821;44.800;10.326;2023-08-06T04:45:55;18.70;99.90
32348;DHT22;18821;44.800;10.326;2023-08-06T04:48:22;18.70;99.90
32348;DHT22;18821;44.800;10.326;2023-08-06T04:50:49;19.50;99.90
32348;DHT22;18821;44.800;10.326;2023-08-06T04:53:16;18.90;99.90
32348;DHT22;18821;44.800;10.326;2023-08-06T04:58:12;20.00;99.90
32348;DHT22;18821;44.800;10.326;2023-08-06T05:00:38;19.30;99.90
32348;DHT22;18821;44.800;10.326;2023-08-06T05:03:06;19.50;99.90
32348;DHT22;18821;44.800;10.326;2023-08-06T05:07:59;19.90;99.90
32348;DHT22;18821;44.800;10.326;2023-08-06T05:10:26;20.50;99.90
32348;DHT22;18821;44.800;10.326;2023-08-06T05:12:52;20.20;99.90
32348;DHT22;18821;44.800;10.326;2023-08-06T05:15:18;19.30;99.90
32348;DHT22;18821;44.800;10.326;2023-08-06T05:17:44;20.00;99.90
32348;DHT22;18821;44.800;10.326;2023-08-06T05:20:11;20.50;99.90
32348;DHT22;18821;44.800;10.326;2023-08-06T05:25:03;20.20;99.90
32348;DHT22;18821;44.800;10.326;2023-08-06T05:27:30;20.80;99.90
32348;DHT22;18821;44.800;10.326;2023-08-06T05:29:56;20.70;99.90
32348;DHT22;18821;44.800;10.326;2023-08-06T05:34:48;21.20;99.90
32348;DHT22;18821;44.800;10.326;2023-08-06T05:37:14;20.80;99.90
32348;DHT22;18821;44.800;10.326;2023-08-06T05:39:40;20.30;99.90
32348;DHT22;18821;44.800;10.326;2023-08-06T05:46:59;21.50;99.90
32348;DHT22;18821;44.800;10.326;2023-08-06T05:49:25;21.60;99.90
32348;DHT22;18821;44.800;10.326;2023-08-06T05:54:19;21.60;99.90
32348;DHT22;18821;44.800;10.326;2023-08-06T05:59:11;22.40;99.90
32348;DHT22;18821;44.800;10.326;2023-08-06T06:01:37;22.70;99.90
32348;DHT22;18821;44.800;10.326;2023-08-06T06:04:03;22.70;99.90
32348;DHT22;18821;44.800;10.326;2023-08-06T06:06:29;23.50;99.90
32348;DHT22;18821;44.800;10.326;2023-08-06T06:08:55;23.40;99.90
32348;DHT22;18821;44.800;10.326;2023-08-06T06:11:21;23.80;99.90
32348;DHT22;18821;44.800;10.326;2023-08-06T06:13:51;24.40;99.90
32348;DHT22;18821;44.800;10.326;2023-08-06T06:18:43;24.80;99.90
32348;DHT22;18821;44.800;10.326;2023-08-06T06:21:10;24.50;99.90
32348;DHT22;18821;44.800;10.326;2023-08-06T06:23:36;24.30;99.90
32348;DHT22;18821;44.800;10.326;2023-08-06T06:31:00;24.00;99.90
32348;DHT22;18821;44.800;10.326;2023-08-06T06:33:27;24.50;99.90
32348;DHT22;18821;44.800;10.326;2023-08-06T06:40:54;22.60;99.90
32348;DHT22;18821;44.800;10.326;2023-08-06T06:43:19;23.70;99.90
32348;DHT22;18821;44.800;10.326;2023-08-06T06:45:45;24.40;99.90
32348;DHT22;18821;44.800;10.326;2023-08-06T06:50:38;23.60;99.90
32348;DHT22;18821;44.800;10.326;2023-08-06T06:53:05;22.30;99.90
32348;DHT22;18821;44.800;10.326;2023-08-06T06:55:31;22.20;99.90
32348;DHT22;18821;44.800;10.326;2023-08-06T06:57:56;22.90;99.90
32348;DHT22;18821;44.800;10.326;2023-08-06T07:00:22;21.80;99.90
32348;DHT22;18821;44.800;10.326;2023-08-06T07:02:48;23.10;99.90
32348;DHT22;18821;44.800;10.326;2023-08-06T07:10:07;22.60;99.90
32348;DHT22;18821;44.800;10.326;2023-08-06T07:12:33;22.80;99.90
32348;DHT22;18821;44.800;10.326;2023-08-06T07:14:59;23.00;99.90
32348;DHT22;18821;44.800;10.326;2023-08-06T07:17:25;22.50;99.90
32348;DHT22;18821;44.800;10.326;2023-08-06T07:19:51;22.80;99.90
32348;DHT22;18821;44.800;10.326;2023-08-06T07:22:17;22.20;99.90
32348;DHT22;18821;44.800;10.326;2023-08-06T07:24:43;23.40;99.90
32348;DHT22;18821;44.800;10.326;2023-08-06T07:29:35;22.60;99.90
32348;DHT22;18821;44.800;10.326;2023-08-06T07:34:27;23.10;99.90
32348;DHT22;18821;44.800;10.326;2023-08-06T07:39:19;23.70;99.90
32348;DHT22;18821;44.800;10.326;2023-08-06T07:44:11;23.30;99.90
32348;DHT22;18821;44.800;10.326;2023-08-06T07:49:04;23.70;99.90
32348;DHT22;18821;44.800;10.326;2023-08-06T07:53:57;23.60;99.90
32348;DHT22;18821;44.800;10.326;2023-08-06T07:58:49;23.80;99.90
32348;DHT22;18821;44.800;10.326;2023-08-06T08:01:15;24.10;99.90
32348;DHT22;18821;44.800;10.326;2023-08-06T08:03:41;23.60;99.90
32348;DHT22;18821;44.800;10.326;2023-08-06T08:11:03;24.00;99.90
32348;DHT22;18821;44.800;10.326;2023-08-06T08:13:29;23.60;99.90
32348;DHT22;18821;44.800;10.326;2023-08-06T08:15:58;23.80;99.90
32348;DHT22;18821;44.800;10.326;2023-08-06T08:18:25;24.30;99.90
32348;DHT22;18821;44.800;10.326;2023-08-06T08:20:51;24.70;99.90
32348;DHT22;18821;44.800;10.326;2023-08-06T08:23:17;24.30;99.90
32348;DHT22;18821;44.800;10.326;2023-08-06T08:25:43;23.80;99.90
32348;DHT22;18821;44.800;10.326;2023-08-06T08:28:09;24.00;99.90
32348;DHT22;18821;44.800;10.326;2023-08-06T08:30:35;24.90;99.90
32348;DHT22;18821;44.800;10.326;2023-08-06T08:33:01;24.40;99.90
32348;DHT22;18821;44.800;10.326;2023-08-06T08:37:53;25.10;99.90
32348;DHT22;18821;44.800;10.326;2023-08-06T08:40:21;25.00;99.90
32348;DHT22;18821;44.800;10.326;2023-08-06T08:42:50;25.50;99.90
32348;DHT22;18821;44.800;10.326;2023-08-06T08:45:17;25.20;99.90
32348;DHT22;18821;44.800;10.326;2023-08-06T08:47:45;25.20;99.90
32348;DHT22;18821;44.800;10.326;2023-08-06T08:50:13;26.40;99.90
32348;DHT22;18821;44.800;10.326;2023-08-06T08:52:40;26.00;99.90
32348;DHT22;18821;44.800;10.326;2023-08-06T08:55:07;25.40;99.90
32348;DHT22;18821;44.800;10.326;2023-08-06T08:57:33;25.50;99.90
32348;DHT22;18821;44.800;10.326;2023-08-06T09:02:28;25.30;99.90
32348;DHT22;18821;44.800;10.326;2023-08-06T09:04:58;26.10;99.90
32348;DHT22;18821;44.800;10.326;2023-08-06T09:07:35;26.20;99.90
32348;DHT22;18821;44.800;10.326;2023-08-06T09:10:04;25.80;99.90
32348;DHT22;18821;44.800;10.326;2023-08-06T09:12:31;26.40;99.90
32348;DHT22;18821;44.800;10.326;2023-08-06T09:19:50;26.50;99.90
32348;DHT22;18821;44.800;10.326;2023-08-06T09:22:16;26.90;99.90
32348;DHT22;18821;44.800;10.326;2023-08-06T09:24:43;26.50;99.90
32348;DHT22;18821;44.800;10.326;2023-08-06T09:27:13;26.40;99.90
32348;DHT22;18821;44.800;10.326;2023-08-06T09:29:43;26.60;99.90
32348;DHT22;18821;44.800;10.326;2023-08-06T09:32:11;26.70;99.90
32348;DHT22;18821;44.800;10.326;2023-08-06T09:34:46;26.80;99.90
32348;DHT22;18821;44.800;10.326;2023-08-06T09:39:40;26.70;99.90
32348;DHT22;18821;44.800;10.326;2023-08-06T09:42:07;26.70;99.90
32348;DHT22;18821;44.800;10.326;2023-08-06T09:44:33;26.70;99.90
32348;DHT22;18821;44.800;10.326;2023-08-06T09:47:04;27.80;99.90
32348;DHT22;18821;44.800;10.326;2023-08-06T09:51:59;27.30;99.90
32348;DHT22;18821;44.800;10.326;2023-08-06T09:54:26;27.60;99.90
32348;DHT22;18821;44.800;10.326;2023-08-06T09:56:53;27.20;99.90
32348;DHT22;18821;44.800;10.326;2023-08-06T09:59:20;27.50;99.90
32348;DHT22;18821;44.800;10.326;2023-08-06T10:01:46;27.80;99.90
32348;DHT22;18821;44.800;10.326;2023-08-06T10:04:14;27.90;99.90
32348;DHT22;18821;44.800;10.326;2023-08-06T10:06:42;27.90;99.90
32348;DHT22;18821;44.800;10.326;2023-08-06T10:09:08;27.60;99.90
32348;DHT22;18821;44.800;10.326;2023-08-06T10:11:37;27.60;98.80
32348;DHT22;18821;44.800;10.326;2023-08-06T10:14:19;27.80;99.90
32348;DHT22;18821;44.800;10.326;2023-08-06T10:16:47;28.00;99.90
32348;DHT22;18821;44.800;10.326;2023-08-06T10:19:14;28.00;99.90
32348;DHT22;18821;44.800;10.326;2023-08-06T10:21:41;27.50;97.90
32348;DHT22;18821;44.800;10.326;2023-08-06T10:24:07;28.10;95.40
32348;DHT22;18821;44.800;10.326;2023-08-06T10:26:37;28.20;99.90
32348;DHT22;18821;44.800;10.326;2023-08-06T10:29:37;28.50;99.90
32348;DHT22;18821;44.800;10.326;2023-08-06T10:32:04;28.50;99.90
32348;DHT22;18821;44.800;10.326;2023-08-06T10:37:25;28.30;91.20
32348;DHT22;18821;44.800;10.326;2023-08-06T10:42:30;28.40;88.40
32348;DHT22;18821;44.800;10.326;2023-08-06T10:45:16;28.50;98.20
32348;DHT22;18821;44.800;10.326;2023-08-06T10:50:15;28.70;96.70
32348;DHT22;18821;44.800;10.326;2023-08-06T10:52:45;28.70;89.20
32348;DHT22;18821;44.800;10.326;2023-08-06T11:00:06;28.40;86.50
32348;DHT22;18821;44.800;10.326;2023-08-06T11:02:36;28.00;97.60
32348;DHT22;18821;44.800;10.326;2023-08-06T11:05:08;28.50;85.70
32348;DHT22;18821;44.800;10.326;2023-08-06T11:07:35;28.90;91.30
32348;DHT22;18821;44.800;10.326;2023-08-06T11:10:12;28.70;95.50
32348;DHT22;18821;44.800;10.326;2023-08-06T11:12:38;28.80;84.60
32348;DHT22;18821;44.800;10.326;2023-08-06T11:15:05;29.60;95.70
32348;DHT22;18821;44.800;10.326;2023-08-06T11:17:33;28.20;97.50
32348;DHT22;18821;44.800;10.326;2023-08-06T11:20:03;28.60;81.30
32348;DHT22;18821;44.800;10.326;2023-08-06T11:27:27;28.70;96.60
32348;DHT22;18821;44.800;10.326;2023-08-06T11:32:20;28.80;94.20
32348;DHT22;18821;44.800;10.326;2023-08-06T11:39:39;29.10;83.90
32348;DHT22;18821;44.800;10.326;2023-08-06T11:42:11;28.80;82.90
32348;DHT22;18821;44.800;10.326;2023-08-06T11:44:37;28.60;96.40
32348;DHT22;18821;44.800;10.326;2023-08-06T11:47:04;28.80;96.50
32348;DHT22;18821;44.800;10.326;2023-08-06T11:49:48;28.60;82.70
32348;DHT22;18821;44.800;10.326;2023-08-06T11:52:25;28.50;82.30
32348;DHT22;18821;44.800;10.326;2023-08-06T11:55:04;28.50;81.50
32348;DHT22;18821;44.800;10.326;2023-08-06T11:57:34;28.60;95.90
32348;DHT22;18821;44.800;10.326;2023-08-06T12:00:08;28.60;94.10
32348;DHT22;18821;44.800;10.326;2023-08-06T12:02:45;28.80;82.80
32348;DHT22;18821;44.800;10.326;2023-08-06T12:05:15;28.80;99.30
32348;DHT22;18821;44.800;10.326;2023-08-06T12:07:45;28.90;91.00
32348;DHT22;18821;44.800;10.326;2023-08-06T12:10:12;28.80;95.30
32348;DHT22;18821;44.800;10.326;2023-08-06T12:12:39;28.80;80.00
32348;DHT22;18821;44.800;10.326;2023-08-06T12:15:07;29.10;82.80
32348;DHT22;18821;44.800;10.326;2023-08-06T12:17:34;29.20;93.80
32348;DHT22;18821;44.800;10.326;2023-08-06T12:22:26;29.60;93.20
32348;DHT22;18821;44.800;10.326;2023-08-06T12:24:52;30.30;96.90
32348;DHT22;18821;44.800;10.326;2023-08-06T12:27:18;29.10;91.20
32348;DHT22;18821;44.800;10.326;2023-08-06T12:29:47;29.50;86.70
32348;DHT22;18821;44.800;10.326;2023-08-06T12:34:40;29.70;94.30
32348;DHT22;18821;44.800;10.326;2023-08-06T12:37:07;30.00;94.50
32348;DHT22;18821;44.800;10.326;2023-08-06T12:39:34;30.10;80.10
32348;DHT22;18821;44.800;10.326;2023-08-06T12:42:04;30.00;93.90
32348;DHT22;18821;44.800;10.326;2023-08-06T12:49:25;30.40;96.80
32348;DHT22;18821;44.800;10.326;2023-08-06T12:51:52;29.80;78.00
32348;DHT22;18821;44.800;10.326;2023-08-06T12:54:20;29.70;92.70
32348;DHT22;18821;44.800;10.326;2023-08-06T12:59:15;29.90;95.40
32348;DHT22;18821;44.800;10.326;2023-08-06T13:04:07;29.90;80.50
32348;DHT22;18821;44.800;10.326;2023-08-06T13:06:33;29.80;90.40
32348;DHT22;18821;44.800;10.326;2023-08-06T13:09:03;30.30;78.20
32348;DHT22;18821;44.800;10.326;2023-08-06T13:11:30;30.50;86.90
32348;DHT22;18821;44.800;10.326;2023-08-06T13:14:06;30.40;75.20
32348;DHT22;18821;44.800;10.326;2023-08-06T13:16:33;30.30;74.40
32348;DHT22;18821;44.800;10.326;2023-08-06T13:18:59;30.50;93.60
32348;DHT22;18821;44.800;10.326;2023-08-06T13:21:33;30.20;72.50
32348;DHT22;18821;44.800;10.326;2023-08-06T13:26:33;30.30;71.30
32348;DHT22;18821;44.800;10.326;2023-08-06T13:29:00;30.00;68.30
32348;DHT22;18821;44.800;10.326;2023-08-06T13:31:27;30.00;91.30
32348;DHT22;18821;44.800;10.326;2023-08-06T13:33:54;30.20;65.30
32348;DHT22;18821;44.800;10.326;2023-08-06T13:36:22;30.10;76.20
32348;DHT22;18821;44.800;10.326;2023-08-06T13:38:48;30.40;87.20
32348;DHT22;18821;44.800;10.326;2023-08-06T13:41:14;30.30;74.00
32348;DHT22;18821;44.800;10.326;2023-08-06T13:43:40;30.20;84.60
32348;DHT22;18821;44.800;10.326;2023-08-06T13:46:06;30.20;82.30
32348;DHT22;18821;44.800;10.326;2023-08-06T13:50:59;30.40;70.40
32348;DHT22;18821;44.800;10.326;2023-08-06T13:53:24;30.40;69.20
32348;DHT22;18821;44.800;10.326;2023-08-06T13:55:56;30.00;58.60
32348;DHT22;18821;44.800;10.326;2023-08-06T14:03:18;30.10;77.10
32348;DHT22;18821;44.800;10.326;2023-08-06T14:10:37;30.20;66.30
32348;DHT22;18821;44.800;10.326;2023-08-06T14:15:29;30.20;79.30
32348;DHT22;18821;44.800;10.326;2023-08-06T14:22:49;30.30;80.60
32348;DHT22;18821;44.800;10.326;2023-08-06T14:30:07;30.20;76.50
32348;DHT22;18821;44.800;10.326;2023-08-06T14:32:33;30.30;76.10
32348;DHT22;18821;44.800;10.326;2023-08-06T14:37:26;30.60;69.40
32348;DHT22;18821;44.800;10.326;2023-08-06T14:47:12;30.40;72.40
32348;DHT22;18821;44.800;10.326;2023-08-06T14:49:38;29.70;56.90
32348;DHT22;18821;44.800;10.326;2023-08-06T14:59:23;30.10;78.30
32348;DHT22;18821;44.800;10.326;2023-08-06T15:04:17;30.30;76.80
32348;DHT22;18821;44.800;10.326;2023-08-06T15:06:44;30.30;78.90
32348;DHT22;18821;44.800;10.326;2023-08-06T15:14:03;30.30;58.40
32348;DHT22;18821;44.800;10.326;2023-08-06T15:19:00;30.10;70.60
32348;DHT22;18821;44.800;10.326;2023-08-06T15:21:27;30.20;59.70
32348;DHT22;18821;44.800;10.326;2023-08-06T15:33:39;30.30;57.40
32348;DHT22;18821;44.800;10.326;2023-08-06T15:36:05;30.10;59.00
32348;DHT22;18821;44.800;10.326;2023-08-06T15:38:31;30.00;60.00
32348;DHT22;18821;44.800;10.326;2023-08-06T15:43:23;30.10;67.30
32348;DHT22;18821;44.800;10.326;2023-08-06T15:45:49;29.60;56.60
32348;DHT22;18821;44.800;10.326;2023-08-06T15:48:15;30.20;61.30
32348;DHT22;18821;44.800;10.326;2023-08-06T15:55:35;30.00;69.50
32348;DHT22;18821;44.800;10.326;2023-08-06T16:07:50;29.80;71.20
32348;DHT22;18821;44.800;10.326;2023-08-06T16:12:42;29.50;62.60
32348;DHT22;18821;44.800;10.326;2023-08-06T16:20:02;29.90;78.50
32348;DHT22;18821;44.800;10.326;2023-08-06T16:22:29;29.70;70.50
32348;DHT22;18821;44.800;10.326;2023-08-06T16:27:21;29.60;81.90
32348;DHT22;18821;44.800;10.326;2023-08-06T16:32:14;29.80;60.10
32348;DHT22;18821;44.800;10.326;2023-08-06T16:34:40;29.40;60.20
32348;DHT22;18821;44.800;10.326;2023-08-06T16:39:33;29.20;63.50
32348;DHT22;18821;44.800;10.326;2023-08-06T16:46:52;29.20;77.30
32348;DHT22;18821;44.800;10.326;2023-08-06T16:49:18;29.30;78.50
32348;DHT22;18821;44.800;10.326;2023-08-06T16:51:44;29.40;78.90
32348;DHT22;18821;44.800;10.326;2023-08-06T16:56:36;29.50;77.60
32348;DHT22;18821;44.800;10.326;2023-08-06T17:03:54;29.20;80.00
32348;DHT22;18821;44.800;10.326;2023-08-06T17:06:21;29.10;60.10
32348;DHT22;18821;44.800;10.326;2023-08-06T17:08:48;29.00;79.30
32348;DHT22;18821;44.800;10.326;2023-08-06T17:11:14;28.90;80.60
32348;DHT22;18821;44.800;10.326;2023-08-06T17:13:39;28.90;69.00
32348;DHT22;18821;44.800;10.326;2023-08-06T17:20:59;28.90;76.00
32348;DHT22;18821;44.800;10.326;2023-08-06T17:23:25;29.60;84.70
32348;DHT22;18821;44.800;10.326;2023-08-06T17:25:53;28.70;63.10
32348;DHT22;18821;44.800;10.326;2023-08-06T17:28:19;28.80;78.80
32348;DHT22;18821;44.800;10.326;2023-08-06T17:30:45;28.30;77.50
32348;DHT22;18821;44.800;10.326;2023-08-06T17:33:11;29.30;86.80
32348;DHT22;18821;44.800;10.326;2023-08-06T17:35:41;28.50;64.50
32348;DHT22;18821;44.800;10.326;2023-08-06T17:38:07;28.40;88.30
32348;DHT22;18821;44.800;10.326;2023-08-06T17:47:52;28.10;74.70
32348;DHT22;18821;44.800;10.326;2023-08-06T17:50:18;29.00;90.00
32348;DHT22;18821;44.800;10.326;2023-08-06T17:57:37;30.50;88.80
32348;DHT22;18821;44.800;10.326;2023-08-06T18:00:03;30.40;77.90
32348;DHT22;18821;44.800;10.326;2023-08-06T18:02:37;30.60;85.90
32348;DHT22;18821;44.800;10.326;2023-08-06T18:05:03;31.10;80.70
32348;DHT22;18821;44.800;10.326;2023-08-06T18:09:56;31.10;74.40
32348;DHT22;18821;44.800;10.326;2023-08-06T18:12:22;31.50;72.00
32348;DHT22;18821;44.800;10.326;2023-08-06T18:14:48;31.30;79.40
32348;DHT22;18821;44.800;10.326;2023-08-06T18:22:07;30.60;86.70
32348;DHT22;18821;44.800;10.326;2023-08-06T18:27:00;28.60;80.40
32348;DHT22;18821;44.800;10.326;2023-08-06T18:34:18;27.50;83.40
32348;DHT22;18821;44.800;10.326;2023-08-06T18:36:44;27.50;84.00
32348;DHT22;18821;44.800;10.326;2023-08-06T18:39:10;27.60;90.10
32348;DHT22;18821;44.800;10.326;2023-08-06T18:41:37;26.20;78.20
32348;DHT22;18821;44.800;10.326;2023-08-06T18:46:29;26.70;92.50
32348;DHT22;18821;44.800;10.326;2023-08-06T18:56:15;25.70;90.30
32348;DHT22;18821;44.800;10.326;2023-08-06T18:58:41;25.70;82.90
32348;DHT22;18821;44.800;10.326;2023-08-06T19:03:35;25.60;90.80
32348;DHT22;18821;44.800;10.326;2023-08-06T19:06:04;26.30;76.10
32348;DHT22;18821;44.800;10.326;2023-08-06T19:08:31;25.60;90.80
32348;DHT22;18821;44.800;10.326;2023-08-06T19:13:24;25.40;73.40
32348;DHT22;18821;44.800;10.326;2023-08-06T19:15:50;25.20;88.90
32348;DHT22;18821;44.800;10.326;2023-08-06T19:20:45;25.30;89.50
32348;DHT22;18821;44.800;10.326;2023-08-06T19:23:11;25.50;71.70
32348;DHT22;18821;44.800;10.326;2023-08-06T19:25:45;25.10;74.40
32348;DHT22;18821;44.800;10.326;2023-08-06T19:28:14;24.70;92.10
32348;DHT22;18821;44.800;10.326;2023-08-06T19:30:42;25.20;82.30
32348;DHT22;18821;44.800;10.326;2023-08-06T19:33:09;25.10;74.90
32348;DHT22;18821;44.800;10.326;2023-08-06T19:35:44;24.40;95.00
32348;DHT22;18821;44.800;10.326;2023-08-06T19:40:38;24.90;93.30
32348;DHT22;18821;44.800;10.326;2023-08-06T19:45:30;24.90;93.20
32348;DHT22;18821;44.800;10.326;2023-08-06T19:47:56;24.50;95.40
32348;DHT22;18821;44.800;10.326;2023-08-06T19:50:22;25.10;96.80
32348;DHT22;18821;44.800;10.326;2023-08-06T20:00:07;25.20;99.90
32348;DHT22;18821;44.800;10.326;2023-08-06T20:02:38;24.00;99.10
32348;DHT22;18821;44.800;10.326;2023-08-06T20:05:04;24.10;99.90
32348;DHT22;18821;44.800;10.326;2023-08-06T20:09:57;24.50;97.10
32348;DHT22;18821;44.800;10.326;2023-08-06T20:14:49;23.80;99.90
32348;DHT22;18821;44.800;10.326;2023-08-06T20:19:41;23.60;99.90
32348;DHT22;18821;44.800;10.326;2023-08-06T20:22:07;24.10;99.90
32348;DHT22;18821;44.800;10.326;2023-08-06T20:26:59;23.70;99.90
32348;DHT22;18821;44.800;10.326;2023-08-06T20:36:45;23.70;99.90
32348;DHT22;18821;44.800;10.326;2023-08-06T20:46:30;23.80;99.90
32348;DHT22;18821;44.800;10.326;2023-08-06T20:48:56;23.60;99.90
32348;DHT22;18821;44.800;10.326;2023-08-06T20:51:22;22.80;99.90
32348;DHT22;18821;44.800;10.326;2023-08-06T20:58:43;23.20;99.90
32348;DHT22;18821;44.800;10.326;2023-08-06T21:01:09;23.80;99.90
32348;DHT22;18821;44.800;10.326;2023-08-06T21:06:04;23.70;99.90
32348;DHT22;18821;44.800;10.326;2023-08-06T21:08:32;23.20;99.90
32348;DHT22;18821;44.800;10.326;2023-08-06T21:11:02;23.30;99.90
32348;DHT22;18821;44.800;10.326;2023-08-06T21:13:28;23.50;98.50
32348;DHT22;18821;44.800;10.326;2023-08-06T21:16:04;23.40;94.80
32348;DHT22;18821;44.800;10.326;2023-08-06T21:18:32;23.00;99.90
32348;DHT22;18821;44.800;10.326;2023-08-06T21:21:02;23.40;94.20
32348;DHT22;18821;44.800;10.326;2023-08-06T21:23:28;23.60;94.10
32348;DHT22;18821;44.800;10.326;2023-08-06T21:26:01;23.30;94.30
32348;DHT22;18821;44.800;10.326;2023-08-06T21:28:30;23.20;94.40
32348;DHT22;18821;44.800;10.326;2023-08-06T21:30:57;23.10;94.20
32348;DHT22;18821;44.800;10.326;2023-08-06T21:33:28;22.90;99.90